Time;durP1;ratioP1;P1;durP2;ratioP2;P2;SDS_P1;SDS_P2;PMS_P1;PMS_P2;Temp;Humidity;BMP_temperature;BMP_pressure;BME280_temperature;BME280_humidity;BME280_pressure;Samples;Min_cycle;Max_cycle;Signal;HPM_P1;HPM_P2
2023/05/31 00:01:24;;;;;;;;;;;;;;;23.05;47.27;100829.54;103490;1292;61396;-82
2023/05/31 00:03:50;;;;;;;;;;;;;;;23.05;47.29;100834.36;103524;1286;61380;-82
2023/05/31 00:06:15;;;;;;;;;;;;;;;23.05;47.29;100836.73;103546;1292;61351;-82
2023/05/31 00:08:41;;;;;;;;;;;;;;;23.05;47.35;100834.38;103552;1292;62544;-82
2023/05/31 00:11:07;;;;;;;;;;;;;;;23.05;47.36;100837.45;103583;1287;61409;-82
2023/05/31 00:13:32;;;;;;;;;;;;;;;23.05;47.37;100836.54;103465;1291;61393;-82
2023/05/31 00:15:58;;;;;;;;;;;;;;;23.05;47.39;100838.89;103555;1290;61403;-82
2023/05/31 00:18:23;;;;;;;;;;;;;;;23.05;47.29;100837.80;103535;1286;61384;-82
2023/05/31 00:20:49;;;;;;;;;;;;;;;23.04;47.29;100836.39;103542;1286;61691;-82
2023/05/31 00:23:15;;;;;;;;;;;;;;;23.05;47.37;100836.02;103481;1289;62422;-83
2023/05/31 00:25:40;;;;;;;;;;;;;;;23.04;47.45;100836.05;103486;1292;61342;-83
2023/05/31 00:28:06;;;;;;;;;;;;;;;23.04;47.42;100836.61;103534;1290;61944;-82
2023/05/31 00:30:31;;;;;;;;;;;;;;;23.04;47.33;100836.78;103611;1289;61422;-83
2023/05/31 00:32:57;;;;;;;;;;;;;;;23.04;47.37;100837.67;103546;1286;62869;-83
2023/05/31 00:35:22;;;;;;;;;;;;;;;23.04;47.26;100838.73;103498;1290;62602;-83
2023/05/31 00:37:48;;;;;;;;;;;;;;;23.04;47.35;100839.10;103476;1286;61377;-83
2023/05/31 00:40:13;;;;;;;;;;;;;;;23.04;47.47;100843.23;103564;1287;61470;-83
2023/05/31 00:42:39;;;;;;;;;;;;;;;23.04;47.33;100846.50;103505;1292;61373;-83
2023/05/31 00:45:06;;;;;;;;;;;;;;;23.04;47.29;100842.73;103558;1286;61908;-83
2023/05/31 00:47:31;;;;;;;;;;;;;;;23.03;47.28;100850.85;103573;1291;61330;-83
2023/05/31 00:49:57;;;;;;;;;;;;;;;23.04;47.37;100850.09;103534;1292;61372;-82
2023/05/31 00:52:22;;;;;;;;;;;;;;;23.04;47.42;100851.00;103510;1292;61430;-82
2023/05/31 00:54:48;;;;;;;;;;;;;;;23.03;47.38;100850.13;103548;1292;61905;-82
2023/05/31 00:57:13;;;;;;;;;;;;;;;23.03;47.35;100849.44;103571;1291;61316;-82
2023/05/31 00:59:39;;;;;;;;;;;;;;;23.03;47.38;100849.77;103487;1286;73506;-82
2023/05/31 01:02:05;;;;;;;;;;;;;;;23.03;47.39;100852.27;103494;1292;62419;-82
2023/05/31 01:04:30;;;;;;;;;;;;;;;23.03;47.30;100853.20;103561;1287;61397;-82
2023/05/31 01:06:56;;;;;;;;;;;;;;;23.03;47.30;100850.14;103582;1286;62445;-82
2023/05/31 01:09:21;;;;;;;;;;;;;;;23.03;47.44;100848.92;103628;1286;61333;-82
2023/05/31 01:11:53;;;;;;;;;;;;;;;23.02;47.33;100850.73;103582;1290;73303;-82
2023/05/31 01:14:30;;;;;;;;;;;;;;;23.03;47.39;100854.14;103572;1286;73856;-82
2023/05/31 01:17:00;;;;;;;;;;;;;;;23.03;47.34;100861.11;103612;1286;61410;-82
2023/05/31 01:19:49;;;;;;;;;;;;;;;23.03;47.38;100859.86;103601;1286;61375;-81
2023/05/31 01:22:20;;;;;;;;;;;;;;;23.03;47.28;100863.09;103454;1288;73228;-81
2023/05/31 01:25:04;;;;;;;;;;;;;;;23.03;47.36;100865.59;103547;1286;74171;-81
2023/05/31 01:27:30;;;;;;;;;;;;;;;23.03;47.43;100867.06;103464;1286;61307;-82
2023/05/31 01:29:55;;;;;;;;;;;;;;;23.03;47.45;100869.18;103404;1286;61429;-82
2023/05/31 01:32:21;;;;;;;;;;;;;;;23.03;47.50;100872.08;103532;1286;62684;-82
2023/05/31 01:34:46;;;;;;;;;;;;;;;23.02;47.56;100873.17;103560;1289;61374;-82
2023/05/31 01:37:12;;;;;;;;;;;;;;;23.02;47.43;100868.48;103561;1286;62473;-82
2023/05/31 01:39:37;;;;;;;;;;;;;;;23.02;47.41;100869.95;103379;1288;62497;-82
2023/05/31 01:42:03;;;;;;;;;;;;;;;23.03;47.46;100871.54;103520;1286;61377;-82
2023/05/31 01:44:29;;;;;;;;;;;;;;;23.02;47.45;100874.45;103490;1286;62540;-82
2023/05/31 01:46:54;;;;;;;;;;;;;;;23.02;47.36;100873.20;103468;1286;61375;-82
2023/05/31 01:49:20;;;;;;;;;;;;;;;23.02;47.46;100875.91;103555;1292;61329;-82
2023/05/31 01:51:45;;;;;;;;;;;;;;;23.02;47.43;100877.69;103560;1286;61313;-82
2023/05/31 01:54:11;;;;;;;;;;;;;;;23.02;47.47;100877.54;103452;1286;62493;-83
2023/05/31 01:56:37;;;;;;;;;;;;;;;23.01;47.42;100880.78;103514;1290;61381;-82
2023/05/31 01:59:06;;;;;;;;;;;;;;;23.01;47.43;100879.52;103463;1292;61565;-82
2023/05/31 02:01:31;;;;;;;;;;;;;;;23.01;47.44;100876.49;103487;1286;61323;-82
2023/05/31 02:03:57;;;;;;;;;;;;;;;23.01;47.53;100873.63;103546;1286;61329;-82
2023/05/31 02:06:26;;;;;;;;;;;;;;;23.01;47.46;100874.89;103517;1285;61470;-82
2023/05/31 02:08:53;;;;;;;;;;;;;;;23.01;47.52;100875.62;103520;1289;74199;-82
2023/05/31 02:11:18;;;;;;;;;;;;;;;23.01;47.46;100874.20;103551;1286;61301;-82
2023/05/31 02:13:44;;;;;;;;;;;;;;;23.01;47.37;100874.56;103486;1286;61399;-82
2023/05/31 02:16:10;;;;;;;;;;;;;;;23.01;47.42;100870.80;103524;1286;62551;-82
2023/05/31 02:18:36;;;;;;;;;;;;;;;23.01;47.49;100870.96;103536;1286;61377;-82
2023/05/31 02:21:01;;;;;;;;;;;;;;;23.01;47.46;100872.95;103554;1286;62309;-82
2023/05/31 02:23:27;;;;;;;;;;;;;;;23.00;47.49;100875.13;103498;1290;61400;-82
2023/05/31 02:25:52;;;;;;;;;;;;;;;23.00;47.44;100876.04;103556;1286;61448;-82
2023/05/31 02:28:18;;;;;;;;;;;;;;;23.01;47.54;100879.40;103495;1286;61814;-82
2023/05/31 02:31:01;;;;;;;;;;;;;;;23.00;47.43;100881.95;103429;1291;61379;-82
2023/05/31 02:33:27;;;;;;;;;;;;;;;23.00;47.46;100881.77;103576;1286;61438;-82
2023/05/31 02:36:12;;;;;;;;;;;;;;;23.00;47.51;100882.69;103414;1291;62228;-82
2023/05/31 02:38:38;;;;;;;;;;;;;;;23.00;47.54;100882.14;103522;1286;72437;-82
2023/05/31 02:41:04;;;;;;;;;;;;;;;23.00;47.51;100882.84;103544;1289;62467;-82
2023/05/31 02:43:30;;;;;;;;;;;;;;;23.00;47.41;100880.52;103541;1292;61278;-82
2023/05/31 02:45:56;;;;;;;;;;;;;;;23.00;47.48;100879.98;103509;1286;61441;-82
2023/05/31 02:48:22;;;;;;;;;;;;;;;23.00;47.45;100883.77;103536;1286;61340;-82
2023/05/31 02:50:47;;;;;;;;;;;;;;;23.01;47.57;100888.40;103586;1286;62680;-82
2023/05/31 02:53:13;;;;;;;;;;;;;;;23.00;47.54;100887.15;103544;1286;62458;-82
2023/05/31 02:55:39;;;;;;;;;;;;;;;23.00;47.49;100888.05;103502;1291;61407;-82
2023/05/31 02:58:06;;;;;;;;;;;;;;;23.01;47.55;100891.80;103550;1286;61376;-82
2023/05/31 03:00:31;;;;;;;;;;;;;;;23.00;47.43;100897.94;103597;1289;61294;-82
2023/05/31 03:02:57;;;;;;;;;;;;;;;23.00;47.48;100898.64;103428;1286;62538;-82
2023/05/31 03:05:23;;;;;;;;;;;;;;;23.01;47.51;100901.69;103501;1287;61758;-82
2023/05/31 03:07:48;;;;;;;;;;;;;;;23.00;47.67;100904.02;103629;1286;61382;-82
2023/05/31 03:10:14;;;;;;;;;;;;;;;23.01;47.56;100905.26;103559;1286;62474;-82
2023/05/31 03:12:39;;;;;;;;;;;;;;;23.01;47.55;100907.95;103513;1286;73454;-82
2023/05/31 03:15:05;;;;;;;;;;;;;;;23.01;47.50;100904.86;103617;1289;61327;-82
2023/05/31 03:17:31;;;;;;;;;;;;;;;23.00;47.40;100906.36;103504;1286;62518;-82
2023/05/31 03:19:56;;;;;;;;;;;;;;;23.00;47.34;100910.67;103574;1289;62498;-82
2023/05/31 03:22:23;;;;;;;;;;;;;;;23.00;47.50;100914.77;103556;1286;61739;-82
2023/05/31 03:24:48;;;;;;;;;;;;;;;23.01;47.32;100917.10;103585;1286;73402;-82
2023/05/31 03:27:14;;;;;;;;;;;;;;;23.00;47.53;100922.32;103485;1286;61458;-82
2023/05/31 03:29:41;;;;;;;;;;;;;;;23.01;47.48;100925.89;103481;1289;62162;-82
2023/05/31 03:32:06;;;;;;;;;;;;;;;23.01;47.59;100926.04;103461;1292;61774;-82
2023/05/31 03:34:32;;;;;;;;;;;;;;;23.01;47.55;100927.52;103611;1286;61858;-82
2023/05/31 03:36:58;;;;;;;;;;;;;;;23.01;47.52;100929.27;103621;1286;61330;-82
2023/05/31 03:39:24;;;;;;;;;;;;;;;23.01;47.49;100927.13;103605;1289;61310;-82
2023/05/31 03:41:50;;;;;;;;;;;;;;;23.01;47.55;100933.25;103546;1286;61390;-82
2023/05/31 03:44:16;;;;;;;;;;;;;;;23.00;47.52;100935.60;103536;1286;62356;-82
2023/05/31 03:46:41;;;;;;;;;;;;;;;23.01;47.49;100936.44;103534;1290;61541;-82
2023/05/31 03:49:07;;;;;;;;;;;;;;;23.01;47.49;100937.19;103546;1286;61397;-82
2023/05/31 03:51:32;;;;;;;;;;;;;;;23.01;47.47;100937.19;103456;1285;61438;-83
2023/05/31 03:53:58;;;;;;;;;;;;;;;23.01;47.52;100942.19;103478;1284;61942;-82
2023/05/31 03:56:24;;;;;;;;;;;;;;;23.01;47.41;100944.73;103503;1286;66119;-82
2023/05/31 03:58:49;;;;;;;;;;;;;;;23.01;47.31;100947.20;103638;1288;72896;-82
2023/05/31 04:01:15;;;;;;;;;;;;;;;23.01;47.37;100949.90;103612;1285;61327;-82
2023/05/31 04:03:41;;;;;;;;;;;;;;;23.01;47.36;100951.67;103685;1288;62574;-82
2023/05/31 04:06:06;;;;;;;;;;;;;;;23.01;47.30;100950.23;103521;1286;61371;-82
2023/05/31 04:08:32;;;;;;;;;;;;;;;23.01;47.34;100949.70;103461;1286;61406;-82
2023/05/31 04:10:57;;;;;;;;;;;;;;;23.02;47.31;100947.89;103465;1291;61402;-82
2023/05/31 04:13:23;;;;;;;;;;;;;;;23.02;47.32;100953.99;103670;1286;61404;-82
2023/05/31 04:15:48;;;;;;;;;;;;;;;23.02;47.25;100959.86;103549;1286;62605;-82
2023/05/31 04:18:14;;;;;;;;;;;;;;;23.03;47.17;100960.39;103661;1289;61378;-82
2023/05/31 04:20:39;;;;;;;;;;;;;;;23.02;47.25;100957.70;103514;1286;61454;-82
2023/05/31 04:23:05;;;;;;;;;;;;;;;23.02;47.25;100961.14;103569;1286;61378;-82
2023/05/31 04:25:31;;;;;;;;;;;;;;;23.02;47.15;100965.09;103602;1286;61386;-83
2023/05/31 04:27:56;;;;;;;;;;;;;;;23.02;47.18;100967.96;103512;1286;61436;-82
2023/05/31 04:30:23;;;;;;;;;;;;;;;23.02;47.19;100971.92;103518;1285;62435;-82
2023/05/31 04:32:52;;;;;;;;;;;;;;;23.02;47.20;100970.29;103505;1286;61889;-82
2023/05/31 04:35:18;;;;;;;;;;;;;;;23.03;47.10;100972.22;103511;1286;75463;-82
2023/05/31 04:37:43;;;;;;;;;;;;;;;23.03;47.09;100971.70;103531;1286;61364;-82
2023/05/31 04:40:09;;;;;;;;;;;;;;;23.03;47.10;100972.36;103528;1286;61351;-82
2023/05/31 04:42:36;;;;;;;;;;;;;;;23.04;47.17;100976.23;103492;1287;61398;-82
2023/05/31 04:45:04;;;;;;;;;;;;;;;23.04;46.91;100977.28;103598;1286;61324;-82
2023/05/31 04:47:30;;;;;;;;;;;;;;;23.05;46.96;100978.30;103530;1286;61413;-82
2023/05/31 04:49:56;;;;;;;;;;;;;;;23.06;47.08;100979.14;103652;1285;62726;-82
2023/05/31 04:52:26;;;;;;;;;;;;;;;23.07;46.79;100978.17;103591;1285;61383;-82
2023/05/31 04:54:52;;;;;;;;;;;;;;;23.08;46.96;100974.33;103643;1291;75295;-81
2023/05/31 04:57:18;;;;;;;;;;;;;;;23.08;46.90;100976.80;103629;1286;61404;-82
2023/05/31 04:59:44;;;;;;;;;;;;;;;23.09;46.86;100982.31;103648;1286;61314;-82
2023/05/31 05:02:09;;;;;;;;;;;;;;;23.10;46.86;100985.98;103512;1286;62528;-83
2023/05/31 05:04:35;;;;;;;;;;;;;;;23.12;46.71;100989.87;103660;1286;61413;-82
2023/05/31 05:07:00;;;;;;;;;;;;;;;23.12;46.82;100987.88;103682;1285;62424;-82
2023/05/31 05:09:26;;;;;;;;;;;;;;;23.13;46.62;100991.75;103544;1286;61413;-82
2023/05/31 05:11:54;;;;;;;;;;;;;;;23.14;46.61;100999.61;103499;1286;61442;-82
2023/05/31 05:14:19;;;;;;;;;;;;;;;23.14;46.57;101000.62;103496;1286;73729;-82
2023/05/31 05:16:45;;;;;;;;;;;;;;;23.16;46.51;100999.29;103419;1286;61483;-82
2023/05/31 05:19:10;;;;;;;;;;;;;;;23.16;46.45;100999.25;103625;1285;61393;-82
2023/05/31 05:21:36;;;;;;;;;;;;;;;23.16;46.25;100997.78;103630;1286;61405;-83
2023/05/31 05:24:02;;;;;;;;;;;;;;;23.18;46.31;101001.26;103528;1286;62334;-83
2023/05/31 05:26:27;;;;;;;;;;;;;;;23.18;46.28;101002.66;103527;1292;61397;-82
2023/05/31 05:28:53;;;;;;;;;;;;;;;23.19;46.30;101000.77;103671;1289;61409;-82
2023/05/31 05:31:18;;;;;;;;;;;;;;;23.20;46.16;101004.50;103541;1286;61418;-82
2023/05/31 05:33:44;;;;;;;;;;;;;;;23.21;46.16;101009.08;103583;1290;61410;-82
2023/05/31 05:36:09;;;;;;;;;;;;;;;23.22;46.19;101010.79;103464;1286;61377;-82
2023/05/31 05:38:35;;;;;;;;;;;;;;;23.23;46.00;101006.95;103557;1287;62507;-82
2023/05/31 05:41:01;;;;;;;;;;;;;;;23.23;46.02;101008.71;103502;1286;75355;-82
2023/05/31 05:43:28;;;;;;;;;;;;;;;23.25;45.98;101011.86;103443;1286;62335;-82
2023/05/31 05:45:54;;;;;;;;;;;;;;;23.25;45.96;101016.46;103594;1286;61381;-83
2023/05/31 05:48:19;;;;;;;;;;;;;;;23.26;46.04;101017.09;103600;1285;61374;-83
2023/05/31 05:50:45;;;;;;;;;;;;;;;23.27;45.89;101017.59;103508;1290;61464;-82
2023/05/31 05:53:11;;;;;;;;;;;;;;;23.28;45.74;101017.01;103534;1286;62500;-82
2023/05/31 05:55:36;;;;;;;;;;;;;;;23.27;45.60;101019.94;103672;1286;61471;-82
2023/05/31 05:58:02;;;;;;;;;;;;;;;23.28;45.47;101020.82;103889;1286;61230;-82
2023/05/31 06:00:28;;;;;;;;;;;;;;;23.28;45.30;101024.71;103733;1286;61349;-82
2023/05/31 06:02:54;;;;;;;;;;;;;;;23.30;45.39;101025.84;103810;1286;61384;-82
2023/05/31 06:05:25;;;;;;;;;;;;;;;23.31;45.20;101031.67;103479;1286;61379;-82
2023/05/31 06:07:51;;;;;;;;;;;;;;;23.31;45.16;101032.37;103572;1291;61381;-82
2023/05/31 06:10:24;;;;;;;;;;;;;;;23.33;44.92;101031.52;103469;1286;73388;-83
2023/05/31 06:12:50;;;;;;;;;;;;;;;23.34;44.93;101029.66;103576;1288;61439;-82
2023/05/31 06:15:16;;;;;;;;;;;;;;;23.35;44.83;101030.31;103568;1286;62363;-82
2023/05/31 06:17:42;;;;;;;;;;;;;;;23.36;44.87;101029.16;103616;1286;61307;-82
2023/05/31 06:20:10;;;;;;;;;;;;;;;23.36;44.92;101027.51;103462;1286;61957;-82
2023/05/31 06:22:36;;;;;;;;;;;;;;;23.37;45.05;101027.97;103639;1286;61375;-82
2023/05/31 06:25:02;;;;;;;;;;;;;;;23.37;44.80;101024.93;103574;1285;62490;-82
2023/05/31 06:27:27;;;;;;;;;;;;;;;23.36;44.62;101026.08;103542;1286;61471;-82
2023/05/31 06:29:57;;;;;;;;;;;;;;;23.37;44.67;101027.11;103399;1286;61366;-82
2023/05/31 06:32:24;;;;;;;;;;;;;;;23.36;44.56;101025.35;103589;1286;74736;-82
2023/05/31 06:34:50;;;;;;;;;;;;;;;23.35;44.28;101029.70;103609;1286;61385;-82
2023/05/31 06:37:15;;;;;;;;;;;;;;;23.35;44.16;101035.33;103760;1286;61526;-82
2023/05/31 06:39:41;;;;;;;;;;;;;;;23.35;44.13;101031.92;103636;1286;61460;-82
2023/05/31 06:42:06;;;;;;;;;;;;;;;23.35;44.22;101032.09;103645;1291;61746;-82
2023/05/31 06:44:32;;;;;;;;;;;;;;;23.35;44.20;101031.54;103854;1284;61406;-83
2023/05/31 06:46:57;;;;;;;;;;;;;;;23.36;44.26;101035.77;103541;1286;61360;-82
2023/05/31 06:49:23;;;;;;;;;;;;;;;23.37;44.35;101033.75;103705;1286;61394;-82
2023/05/31 06:51:48;;;;;;;;;;;;;;;23.37;44.31;101035.33;103592;1289;61795;-82
2023/05/31 06:54:14;;;;;;;;;;;;;;;23.38;44.28;101036.88;103559;1291;61361;-82
2023/05/31 06:56:40;;;;;;;;;;;;;;;23.38;43.87;101040.80;103644;1286;62155;-82
2023/05/31 06:59:06;;;;;;;;;;;;;;;23.38;44.18;101039.90;103719;1286;61375;-82
2023/05/31 07:01:31;;;;;;;;;;;;;;;23.39;44.00;101040.05;103510;1286;61297;-82
2023/05/31 07:03:57;;;;;;;;;;;;;;;23.39;44.00;101045.41;103551;1286;61389;-82
2023/05/31 07:06:24;;;;;;;;;;;;;;;23.39;43.87;101044.30;103511;1291;61989;-82
2023/05/31 07:08:50;;;;;;;;;;;;;;;23.39;43.78;101045.38;103252;1286;723338;-82
2023/05/31 07:11:15;;;;;;;;;;;;;;;23.40;44.04;101049.48;103637;1287;61451;-82
2023/05/31 07:13:41;;;;;;;;;;;;;;;23.40;43.92;101049.31;103526;1286;62459;-82
2023/05/31 07:16:06;;;;;;;;;;;;;;;23.40;43.86;101052.86;103703;1286;61329;-82
2023/05/31 07:18:32;;;;;;;;;;;;;;;23.40;43.83;101055.40;103673;1286;75558;-80
2023/05/31 07:20:58;;;;;;;;;;;;;;;23.41;43.91;101052.10;103754;1286;61374;-81
2023/05/31 07:23:26;;;;;;;;;;;;;;;23.41;43.72;101046.70;103642;1286;61363;-81
2023/05/31 07:25:52;;;;;;;;;;;;;;;23.42;43.74;101050.60;103726;1286;72620;-81
2023/05/31 07:28:17;;;;;;;;;;;;;;;23.41;43.76;101049.20;103806;1287;61298;-82
2023/05/31 07:30:43;;;;;;;;;;;;;;;23.40;43.58;101049.98;103778;1286;61345;-82
2023/05/31 07:33:08;;;;;;;;;;;;;;;23.40;43.56;101049.09;103647;1286;61384;-82
2023/05/31 07:35:34;;;;;;;;;;;;;;;23.41;43.51;101050.31;103784;1289;61404;-82
2023/05/31 07:37:59;;;;;;;;;;;;;;;23.41;43.40;101051.70;103658;1286;73395;-82
2023/05/31 07:40:25;;;;;;;;;;;;;;;23.41;43.32;101056.02;103490;1291;62646;-82
2023/05/31 07:42:50;;;;;;;;;;;;;;;23.41;43.29;101055.27;103546;1285;61352;-82
2023/05/31 07:45:16;;;;;;;;;;;;;;;23.42;43.25;101049.88;103795;1286;61377;-80
2023/05/31 07:47:44;;;;;;;;;;;;;;;23.42;43.13;101049.34;103967;1286;61378;-81
2023/05/31 07:50:10;;;;;;;;;;;;;;;23.42;42.98;101054.87;103744;1286;61759;-81
2023/05/31 07:52:36;;;;;;;;;;;;;;;23.42;43.08;101050.02;103640;1286;61378;-81
2023/05/31 07:55:02;;;;;;;;;;;;;;;23.43;42.90;101045.84;103984;1286;61386;-81
2023/05/31 07:57:28;;;;;;;;;;;;;;;23.43;42.71;101047.11;103866;1286;61353;-81
2023/05/31 07:59:54;;;;;;;;;;;;;;;23.44;42.82;101049.36;103849;1286;61343;-80
2023/05/31 08:02:19;;;;;;;;;;;;;;;23.45;42.95;101051.60;103948;1288;63882;-80
2023/05/31 08:04:45;;;;;;;;;;;;;;;23.46;43.02;101051.22;103955;1287;61389;-80
2023/05/31 08:07:10;;;;;;;;;;;;;;;23.47;42.96;101049.52;103822;1289;62527;-80
2023/05/31 08:09:36;;;;;;;;;;;;;;;23.47;42.98;101052.20;103833;1286;61427;-80
2023/05/31 08:12:02;;;;;;;;;;;;;;;23.47;43.02;101052.02;103791;1290;61402;-80
2023/05/31 08:14:28;;;;;;;;;;;;;;;23.48;42.86;101052.29;103799;1286;61387;-80
2023/05/31 08:16:53;;;;;;;;;;;;;;;23.48;42.84;101049.27;103737;1285;61380;-81
2023/05/31 08:19:19;;;;;;;;;;;;;;;23.49;42.99;101049.13;103899;1286;61391;-80
2023/05/31 08:21:46;;;;;;;;;;;;;;;23.50;42.87;101050.35;103828;1286;61301;-80
2023/05/31 08:24:12;;;;;;;;;;;;;;;23.49;42.89;101046.95;103777;1289;72292;-80
2023/05/31 08:26:37;;;;;;;;;;;;;;;23.50;42.92;101050.48;103854;1289;61391;-80
2023/05/31 08:29:03;;;;;;;;;;;;;;;23.50;42.92;101053.91;103693;1286;62467;-81
2023/05/31 08:31:28;;;;;;;;;;;;;;;23.50;42.83;101054.41;103819;1291;61464;-81
2023/05/31 08:33:55;;;;;;;;;;;;;;;23.51;42.75;101050.44;103962;1286;61860;-80
2023/05/31 08:36:20;;;;;;;;;;;;;;;23.51;42.85;101052.05;103764;1290;73642;-80
2023/05/31 08:38:46;;;;;;;;;;;;;;;23.51;42.82;101049.14;103963;1286;62119;-80
2023/05/31 08:41:11;;;;;;;;;;;;;;;23.51;42.64;101046.44;103663;1286;61534;-80
2023/05/31 08:43:37;;;;;;;;;;;;;;;23.51;42.83;101049.31;103599;1286;61387;-80
2023/05/31 08:46:05;;;;;;;;;;;;;;;23.52;42.69;101045.87;103541;1286;61496;-80
2023/05/31 08:48:33;;;;;;;;;;;;;;;23.52;42.72;101041.20;103639;1285;72461;-82
2023/05/31 08:50:58;;;;;;;;;;;;;;;23.52;42.68;101033.45;103655;1291;75600;-82
2023/05/31 08:53:25;;;;;;;;;;;;;;;23.52;42.58;101035.98;103556;1286;61378;-82
2023/05/31 08:55:51;;;;;;;;;;;;;;;23.52;42.53;101033.61;103585;1286;61478;-81
2023/05/31 08:58:17;;;;;;;;;;;;;;;23.52;42.56;101031.27;103532;1286;61391;-82
2023/05/31 09:00:43;;;;;;;;;;;;;;;23.52;42.58;101031.48;103563;1292;61803;-81
2023/05/31 09:03:09;;;;;;;;;;;;;;;23.52;42.38;101027.14;103572;1286;61330;-82
2023/05/31 09:05:34;;;;;;;;;;;;;;;23.52;42.13;101024.33;103546;1286;61381;-82
2023/05/31 09:08:00;;;;;;;;;;;;;;;23.53;42.25;101026.39;103568;1290;61441;-80
2023/05/31 09:10:25;;;;;;;;;;;;;;;23.53;42.12;101033.39;103585;1286;61393;-81
2023/05/31 09:12:50;;;;;;;;;;;;;;;23.53;41.96;101032.67;103624;1286;61476;-81
2023/05/31 09:15:16;;;;;;;;;;;;;;;23.53;41.85;101029.98;103578;1286;61284;-81
2023/05/31 09:17:45;;;;;;;;;;;;;;;23.54;41.91;101032.42;103749;1286;61959;-80
2023/05/31 09:20:11;;;;;;;;;;;;;;;23.54;41.93;101026.80;103472;1289;61933;-80
2023/05/31 09:22:38;;;;;;;;;;;;;;;23.54;41.90;101027.51;103216;1289;61625;-80
2023/05/31 09:25:03;;;;;;;;;;;;;;;23.54;41.73;101026.61;103516;1294;61262;-80
2023/05/31 09:27:36;;;;;;;;;;;;;;;23.55;41.64;101024.80;103293;1293;61490;-80
2023/05/31 09:30:05;;;;;;;;;;;;;;;23.55;41.62;101028.17;103343;1290;62395;-80
2023/05/31 09:32:31;;;;;;;;;;;;;;;23.55;41.52;101023.30;103449;1288;72154;-80
2023/05/31 09:35:09;;;;;;;;;;;;;;;23.55;41.57;101026.36;103328;1291;61303;-82
2023/05/31 09:37:38;;;;;;;;;;;;;;;23.56;41.59;101031.52;103325;1289;61320;-82
2023/05/31 09:40:05;;;;;;;;;;;;;;;23.57;41.53;101029.14;103235;1293;61387;-82
2023/05/31 09:42:30;;;;;;;;;;;;;;;23.57;41.31;101030.02;103367;1289;72379;-82
2023/05/31 09:44:58;;;;;;;;;;;;;;;23.57;41.13;101027.29;103493;1289;61391;-83
2023/05/31 09:47:25;;;;;;;;;;;;;;;23.58;41.14;101025.23;103462;1292;62030;-83
2023/05/31 09:49:52;;;;;;;;;;;;;;;23.58;41.12;101025.95;103419;1289;61305;-82
2023/05/31 09:52:18;;;;;;;;;;;;;;;23.58;41.13;101024.13;103792;1286;73253;-82
2023/05/31 09:54:44;;;;;;;;;;;;;;;23.59;41.18;101020.54;103859;1291;61404;-82
2023/05/31 09:57:13;;;;;;;;;;;;;;;23.59;41.16;101020.91;103585;1289;62355;-82
2023/05/31 09:59:39;;;;;;;;;;;;;;;23.59;41.27;101018.38;103987;1286;59934;-82
2023/05/31 10:02:05;;;;;;;;;;;;;;;23.59;41.30;101016.57;103822;1289;61387;-82
2023/05/31 10:04:30;;;;;;;;;;;;;;;23.59;41.40;101007.95;103556;1288;62037;-81
2023/05/31 10:06:56;;;;;;;;;;;;;;;23.58;41.46;101006.34;103728;1286;61438;-83
2023/05/31 10:09:21;;;;;;;;;;;;;;;23.58;41.32;101004.39;103851;1286;62669;-83
2023/05/31 10:11:49;;;;;;;;;;;;;;;23.58;41.57;101005.83;104008;1286;61345;-82
2023/05/31 10:14:25;;;;;;;;;;;;;;;23.58;41.33;101003.53;103793;1286;72297;-82
2023/05/31 10:16:52;;;;;;;;;;;;;;;23.58;41.54;101005.64;103998;1286;75650;-82
2023/05/31 10:19:27;;;;;;;;;;;;;;;23.59;41.47;101009.23;103725;1291;61153;-82
2023/05/31 10:21:52;;;;;;;;;;;;;;;23.59;41.52;101011.73;103688;1288;61937;-82
2023/05/31 10:24:20;;;;;;;;;;;;;;;23.58;41.54;101011.77;103869;1289;61346;-82
2023/05/31 10:26:55;;;;;;;;;;;;;;;23.59;41.58;101011.20;103444;1286;61384;-82
2023/05/31 10:29:24;;;;;;;;;;;;;;;23.59;41.63;101009.59;103535;1287;61398;-82
2023/05/31 10:31:50;;;;;;;;;;;;;;;23.58;41.51;100999.70;103860;1289;61417;-83
2023/05/31 10:34:16;;;;;;;;;;;;;;;23.59;41.59;100997.55;103567;1293;61413;-81
2023/05/31 10:36:41;;;;;;;;;;;;;;;23.58;41.56;100994.70;103743;1288;61396;-81
2023/05/31 10:39:09;;;;;;;;;;;;;;;23.58;41.55;100991.30;103603;1286;61419;-81
2023/05/31 10:41:38;;;;;;;;;;;;;;;23.58;41.58;100985.23;103551;1286;62395;-82
2023/05/31 10:44:06;;;;;;;;;;;;;;;23.58;41.51;100986.11;103665;1286;72358;-81
2023/05/31 10:46:32;;;;;;;;;;;;;;;23.57;41.57;100989.38;103596;1290;76606;-82
2023/05/31 10:48:58;;;;;;;;;;;;;;;23.57;41.67;100983.29;103723;1286;61613;-81
2023/05/31 10:51:39;;;;;;;;;;;;;;;23.57;41.57;100976.69;103583;1288;61459;-81
2023/05/31 10:54:05;;;;;;;;;;;;;;;23.56;41.61;100975.11;103570;1291;72472;-81
2023/05/31 10:56:31;;;;;;;;;;;;;;;23.56;41.65;100970.09;103537;1291;61425;-81
2023/05/31 10:58:56;;;;;;;;;;;;;;;23.56;41.60;100969.90;103580;1286;61441;-81
2023/05/31 11:01:22;;;;;;;;;;;;;;;23.55;41.65;100969.77;103792;1291;61477;-81
2023/05/31 11:03:48;;;;;;;;;;;;;;;23.55;41.72;100967.47;103496;1291;61479;-82
2023/05/31 11:06:15;;;;;;;;;;;;;;;23.54;41.59;100966.08;103651;1286;61440;-82
2023/05/31 11:08:59;;;;;;;;;;;;;;;23.55;41.57;100958.15;103776;1286;76607;-82
2023/05/31 11:11:30;;;;;;;;;;;;;;;23.54;41.54;100956.39;103539;1286;61380;-82
2023/05/31 11:14:03;;;;;;;;;;;;;;;23.54;41.66;100958.77;103471;1288;61330;-82
2023/05/31 11:16:32;;;;;;;;;;;;;;;23.54;41.61;100956.58;103666;1286;73412;-82
2023/05/31 11:19:06;;;;;;;;;;;;;;;23.54;41.62;100950.09;103517;1286;66835;-82
2023/05/31 11:21:47;;;;;;;;;;;;;;;23.54;41.71;100951.71;103594;1291;61765;-82
2023/05/31 11:24:29;;;;;;;;;;;;;;;23.55;41.71;100953.13;103653;1286;61384;-82
2023/05/31 11:26:55;;;;;;;;;;;;;;;23.54;41.69;100947.60;103750;1288;72502;-82
2023/05/31 11:29:20;;;;;;;;;;;;;;;23.54;41.72;100946.86;103618;1291;62374;-82
2023/05/31 11:31:55;;;;;;;;;;;;;;;23.55;41.83;100943.40;103644;1290;61372;-82
2023/05/31 11:34:23;;;;;;;;;;;;;;;23.55;41.61;100945.20;103691;1287;62542;-82
2023/05/31 11:36:49;;;;;;;;;;;;;;;23.55;41.69;100940.86;103683;1289;73490;-82
2023/05/31 11:39:16;;;;;;;;;;;;;;;23.55;41.88;100944.30;103609;1292;61544;-82
2023/05/31 11:41:43;;;;;;;;;;;;;;;23.55;41.77;100945.37;103697;1286;61401;-82
2023/05/31 11:44:10;;;;;;;;;;;;;;;23.55;41.74;100942.51;103610;1291;61470;-82
2023/05/31 11:46:36;;;;;;;;;;;;;;;23.55;41.83;100943.20;103501;1291;72750;-82
2023/05/31 11:49:02;;;;;;;;;;;;;;;23.55;41.87;100942.84;103455;1286;61330;-82
2023/05/31 11:51:27;;;;;;;;;;;;;;;23.55;41.88;100937.44;103609;1289;62294;-83
2023/05/31 11:53:56;;;;;;;;;;;;;;;23.56;41.84;100934.36;103414;1286;62447;-82
2023/05/31 11:56:33;;;;;;;;;;;;;;;23.56;41.74;100930.21;103645;1290;64946;-82
2023/05/31 11:58:59;;;;;;;;;;;;;;;23.56;41.85;100932.90;103594;1286;66807;-82
2023/05/31 12:01:25;;;;;;;;;;;;;;;23.56;41.86;100924.97;103686;1286;61458;-82
2023/05/31 12:03:59;;;;;;;;;;;;;;;23.57;41.88;100919.39;103754;1286;61360;-82
2023/05/31 12:06:26;;;;;;;;;;;;;;;23.57;41.79;100919.15;103592;1291;64891;-82
2023/05/31 12:08:52;;;;;;;;;;;;;;;23.57;41.93;100924.89;103764;1291;61374;-82
2023/05/31 12:11:17;;;;;;;;;;;;;;;23.58;41.91;100923.76;103878;1286;61448;-82
2023/05/31 12:13:43;;;;;;;;;;;;;;;23.58;41.85;100918.55;103738;1289;61458;-82
2023/05/31 12:16:08;;;;;;;;;;;;;;;23.59;41.96;100921.55;103450;1286;62495;-82
2023/05/31 12:18:35;;;;;;;;;;;;;;;23.59;41.94;100919.90;103609;1286;61295;-82
2023/05/31 12:21:05;;;;;;;;;;;;;;;23.60;41.87;100922.73;103616;1286;66841;-82
2023/05/31 12:23:31;;;;;;;;;;;;;;;23.60;41.83;100920.70;103515;1287;61366;-82